Time;durP1;ratioP1;P1;durP2;ratioP2;P2;SDS_P1;SDS_P2;PMS_P1;PMS_P2;Temp;Humidity;BMP_temperature;BMP_pressure;BME280_temperature;BME280_humidity;BME280_pressure;Samples;Min_cycle;Max_cycle;Signal;HPM_P1;HPM_P2
2023/09/22 00:00:47;;;;;;;9.00;4.90;;;20.50;99.90;;;20.87;63.23;95022.94;5020868;28;20799;-57
2023/09/22 00:03:15;;;;;;;6.30;3.50;;;20.40;99.90;;;20.84;63.38;95023.31;5019439;28;20452;-59
2023/09/22 00:05:42;;;;;;;6.27;3.53;;;20.40;99.90;;;20.86;63.78;95010.56;5020561;28;20915;-58
2023/09/22 00:08:10;;;;;;;7.00;3.80;;;20.40;99.90;;;20.88;64.17;95013.88;5014951;28;20458;-65
2023/09/22 00:10:38;;;;;;;8.33;4.23;;;20.40;99.90;;;20.91;64.13;95008.13;5016822;28;20741;-65
2023/09/22 00:13:06;;;;;;;5.30;4.80;;;20.40;99.90;;;20.92;64.81;95020.47;5019793;28;20453;-58
2023/09/22 00:15:35;;;;;;;13.03;5.27;;;20.50;99.90;;;20.92;64.76;95015.13;5019708;28;21194;-67
2023/09/22 00:18:02;;;;;;;9.27;4.60;;;20.50;99.90;;;20.93;65.07;95027.47;5011906;28;20485;-58
2023/09/22 00:20:30;;;;;;;19.33;4.40;;;20.50;99.90;;;20.94;65.44;95027.28;5018121;28;20548;-59
2023/09/22 00:22:57;;;;;;;14.47;4.83;;;20.50;99.90;;;20.97;65.75;95049.28;5019717;28;20564;-65
2023/09/22 00:25:24;;;;;;;6.43;3.67;;;20.50;99.90;;;20.98;66.01;95035.72;5019044;28;20481;-57
2023/09/22 00:27:53;;;;;;;9.33;4.23;;;20.50;99.90;;;21.00;65.78;95027.50;5019919;28;20941;-65
2023/09/22 00:30:21;;;;;;;6.40;4.10;;;20.60;99.90;;;20.99;65.67;95026.69;5015577;28;21094;-65
2023/09/22 00:32:48;;;;;;;9.77;4.33;;;20.60;99.90;;;20.99;65.62;95037.38;5020834;28;20536;-66
2023/09/22 00:35:15;;;;;;;24.13;4.70;;;20.60;99.90;;;21.00;65.86;95039.00;5021518;28;20609;-57
2023/09/22 00:37:43;;;;;;;15.63;4.00;;;20.60;99.90;;;21.05;65.63;95043.75;5015339;28;20461;-66
2023/09/22 00:40:12;;;;;;;8.37;4.00;;;20.60;99.90;;;21.11;65.50;95029.56;5019016;28;20555;-66
2023/09/22 00:42:39;;;;;;;10.10;4.20;;;20.60;99.90;;;21.13;65.49;95033.69;5020640;28;20574;-57
2023/09/22 00:45:10;;;;;;;9.03;3.80;;;20.70;99.90;;;21.14;65.30;95026.50;5018768;28;20847;-65
2023/09/22 00:47:37;;;;;;;13.77;4.40;;;20.70;99.90;;;21.13;65.53;94996.25;5020606;28;20479;-66
2023/09/22 00:50:05;;;;;;;7.33;3.57;;;20.70;99.90;;;21.11;65.29;94946.66;5016442;28;20481;-57
2023/09/22 00:52:32;;;;;;;8.87;4.60;;;20.70;99.90;;;21.05;65.68;94972.38;5017810;28;20506;-65
2023/09/22 00:54:59;;;;;;;11.87;4.33;;;20.60;99.90;;;21.02;66.32;95022.75;5017919;28;20570;-66
2023/09/22 00:57:27;;;;;;;5.13;4.33;;;20.60;99.90;;;21.02;67.72;95039.66;5016074;28;20568;-58
2023/09/22 00:59:54;;;;;;;15.17;4.90;;;20.60;99.90;;;21.03;66.80;95032.44;5020661;28;20472;-66
2023/09/22 01:02:23;;;;;;;7.57;4.30;;;20.60;99.90;;;21.00;66.77;95014.13;5021595;28;20456;-60
2023/09/22 01:04:51;;;;;;;9.33;4.53;;;20.60;99.90;;;20.98;66.78;95013.50;5017827;28;20470;-65
2023/09/22 01:07:18;;;;;;;9.73;5.33;;;20.50;99.90;;;20.95;66.84;95018.22;5016053;28;20533;-58
2023/09/22 01:09:45;;;;;;;8.10;4.03;;;20.50;99.90;;;20.93;66.83;95014.09;5017438;28;20565;-60
2023/09/22 01:13:09;;;;;;;11.73;4.57;;;20.50;99.90;;;20.91;67.44;95016.13;5110293;27;20593;-65
2023/09/22 01:15:38;;;;;;;8.47;3.93;;;20.50;99.90;;;20.91;68.00;95011.63;5100586;28;20537;-58
2023/09/22 01:18:05;;;;;;;11.97;4.80;;;20.50;99.90;;;20.91;68.11;95013.47;5095420;28;20442;-64
2023/09/22 01:20:33;;;;;;;10.60;4.70;;;20.50;99.90;;;20.90;67.76;95012.66;5098143;28;20465;-57
2023/09/22 01:23:02;;;;;;;12.23;3.57;;;20.50;99.90;;;20.90;68.43;95023.34;5095266;28;20458;-58
2023/09/22 01:25:29;;;;;;;13.57;4.70;;;20.40;99.90;;;20.92;68.42;95028.50;5095326;28;20470;-58
2023/09/22 01:27:57;;;;;;;16.13;3.93;;;20.50;99.90;;;20.93;68.31;95022.94;5098122;28;20449;-66
2023/09/22 01:30:24;;;;;;;11.57;4.80;;;20.50;99.90;;;20.94;68.16;95015.72;5095707;28;20615;-65
2023/09/22 01:32:52;;;;;;;12.47;4.87;;;20.50;99.90;;;20.90;67.84;95012.66;5095849;28;20543;-65
2023/09/22 01:35:19;;;;;;;12.97;4.23;;;20.50;99.90;;;20.89;67.78;95008.31;5101017;28;20590;-66
2023/09/22 01:37:51;;;;;;;11.60;3.73;;;20.50;99.90;;;20.90;68.11;95011.84;5092320;28;20508;-65
2023/09/22 01:40:19;;;;;;;11.00;3.47;;;20.40;99.90;;;20.90;68.10;95007.28;5095171;28;20831;-59
2023/09/22 01:42:47;;;;;;;7.60;4.07;;;20.40;99.90;;;20.89;68.26;95005.63;5097430;28;20480;-57
2023/09/22 01:45:14;;;;;;;4.70;2.97;;;20.40;99.90;;;20.86;67.84;95003.38;5095122;28;20535;-66
2023/09/22 01:47:41;;;;;;;10.93;4.10;;;20.40;99.90;;;20.81;67.68;94964.91;5097160;28;20457;-59
2023/09/22 01:50:09;;;;;;;12.73;3.60;;;20.40;99.90;;;20.73;67.71;94953.38;5089507;28;21030;-65
2023/09/22 01:52:37;;;;;;;11.37;3.73;;;20.30;99.90;;;20.68;67.83;94965.66;5091728;28;20573;-65
2023/09/22 01:55:05;;;;;;;15.10;4.37;;;20.30;99.90;;;20.66;68.05;94973.88;5090128;28;20467;-65
2023/09/22 01:57:34;;;;;;;10.73;3.50;;;20.20;99.90;;;20.68;68.35;94979.03;5095181;28;20954;-65
2023/09/22 02:00:10;;;;;;;18.23;3.33;;;20.20;99.90;;;20.66;68.60;94992.59;5096879;28;20833;-65
2023/09/22 02:02:42;;;;;;;9.67;3.30;;;20.20;99.90;;;20.64;68.73;94986.59;5093486;28;20469;-64
2023/09/22 02:05:11;;;;;;;12.37;3.50;;;20.20;99.90;;;20.64;68.76;94991.13;5085850;28;20841;-58
2023/09/22 02:07:38;;;;;;;10.77;3.10;;;20.20;99.90;;;20.64;68.84;94980.44;5087533;28;20893;-58
2023/09/22 02:10:08;;;;;;;6.83;3.53;;;20.20;99.90;;;20.60;68.88;94978.16;5090176;28;20843;-58
2023/09/22 02:12:36;;;;;;;12.70;3.27;;;20.20;99.90;;;20.57;68.90;94978.56;5090694;28;20485;-66
2023/09/22 02:15:04;;;;;;;7.13;3.77;;;20.20;99.90;;;20.54;69.13;94964.75;5098276;28;20515;-64
2023/09/22 02:17:32;;;;;;;11.00;3.20;;;20.10;99.90;;;20.50;69.12;94974.22;5089684;28;20446;-65
2023/09/22 02:19:59;;;;;;;14.67;4.60;;;20.10;99.90;;;20.46;69.21;94967.63;5085854;28;20552;-57
2023/09/22 02:22:26;;;;;;;10.13;3.33;;;20.00;99.90;;;20.42;69.67;94972.53;5089359;28;20981;-57
2023/09/22 02:24:54;;;;;;;11.67;5.07;;;20.00;99.90;;;20.37;69.38;94973.13;5080081;28;21014;-58
2023/09/22 02:27:21;;;;;;;9.80;4.57;;;20.00;99.90;;;20.33;69.82;94974.53;5084306;28;20515;-59
2023/09/22 02:29:50;;;;;;;9.90;4.97;;;19.90;99.90;;;20.29;70.20;94977.81;5080635;28;20477;-65
2023/09/22 02:32:17;;;;;;;9.57;5.47;;;19.90;99.90;;;20.24;70.40;94970.38;5083047;28;20485;-58
2023/09/22 02:34:44;;;;;;;9.83;5.33;;;19.80;99.90;;;20.22;70.41;94977.78;5080626;28;20475;-59
2023/09/22 02:37:12;;;;;;;7.87;4.83;;;19.80;99.90;;;20.18;70.87;94981.84;5076141;28;20516;-66
2023/09/22 02:39:39;;;;;;;15.10;5.47;;;19.80;99.90;;;20.16;70.57;94978.56;5082937;28;20836;-59
2023/09/22 02:42:06;;;;;;;10.93;4.70;;;19.80;99.90;;;20.16;70.88;94986.56;5078551;28;20463;-57
2023/09/22 02:44:34;;;;;;;10.67;5.60;;;19.70;99.90;;;20.14;70.75;94981.44;5081261;28;20605;-66
2023/09/22 02:47:03;;;;;;;12.93;6.47;;;19.70;99.90;;;20.11;71.24;94992.50;5081430;28;20458;-67
2023/09/22 02:49:31;;;;;;;8.33;6.10;;;19.70;99.90;;;20.08;71.47;94989.38;5082243;28;20467;-59
2023/09/22 02:51:58;;;;;;;11.17;5.93;;;19.70;99.90;;;20.03;71.94;94992.63;5081470;28;20492;-59
2023/09/22 02:54:25;;;;;;;12.30;6.50;;;19.60;99.90;;;19.99;72.08;95000.22;5081772;28;20619;-65
2023/09/22 02:56:53;;;;;;;11.10;5.90;;;19.60;99.90;;;19.96;72.08;95003.28;5081826;28;20491;-65
2023/09/22 02:59:20;;;;;;;11.87;6.60;;;19.50;99.90;;;19.93;72.18;95001.00;5081592;28;20497;-59
2023/09/22 03:01:47;;;;;;;7.63;5.97;;;19.50;99.90;;;19.90;72.39;95003.25;5078352;28;20459;-66
2023/09/22 03:04:16;;;;;;;10.17;5.90;;;19.50;99.90;;;19.90;72.63;95005.91;5083602;28;20478;-66
2023/09/22 03:06:43;;;;;;;8.67;5.77;;;19.50;99.90;;;19.87;72.78;95004.44;5078037;28;20455;-57
2023/09/22 03:09:10;;;;;;;13.00;6.13;;;19.50;99.90;;;19.87;72.90;95001.78;5081083;28;20471;-59
2023/09/22 03:11:38;;;;;;;11.73;6.07;;;19.40;99.90;;;19.87;72.84;95020.47;5081836;28;20465;-59
2023/09/22 03:14:05;;;;;;;14.27;5.93;;;19.50;99.90;;;19.85;72.78;95011.84;5073906;28;20470;-58
2023/09/22 03:16:33;;;;;;;14.53;6.37;;;19.40;99.90;;;19.83;72.83;95016.53;5076174;28;20453;-58
2023/09/22 03:19:00;;;;;;;11.03;6.37;;;19.40;99.90;;;19.83;72.81;95011.19;5082224;28;20470;-58
2023/09/22 03:21:28;;;;;;;8.10;5.70;;;19.40;99.90;;;19.80;73.21;95007.09;5079722;28;20451;-61
2023/09/22 03:23:56;;;;;;;16.20;7.63;;;19.40;99.90;;;19.79;73.25;95010.75;5082184;28;20489;-59
2023/09/22 03:26:23;;;;;;;10.40;5.47;;;19.40;99.90;;;19.75;73.17;95001.47;5079486;28;20447;-65
2023/09/22 03:28:50;;;;;;;8.57;6.47;;;19.30;99.90;;;19.67;73.06;94997.09;5082455;28;20993;-59
2023/09/22 03:31:19;;;;;;;11.47;6.07;;;19.30;99.90;;;19.60;73.45;95001.56;5073201;28;20828;-66
2023/09/22 03:33:47;;;;;;;13.57;6.37;;;19.20;99.90;;;19.56;73.67;95002.13;5082883;28;20493;-65
2023/09/22 03:36:14;;;;;;;8.77;5.80;;;19.20;99.90;;;19.49;73.68;94999.41;5077643;28;20459;-59
2023/09/22 03:38:46;;;;;;;10.33;4.90;;;19.10;99.90;;;19.46;73.56;95002.47;5074964;28;20446;-59
2023/09/22 03:41:15;;;;;;;6.30;5.20;;;19.10;99.90;;;19.41;73.27;94999.53;5076472;28;20447;-65
2023/09/22 03:43:43;;;;;;;7.07;4.60;;;19.00;99.90;;;19.37;73.42;95003.59;5082144;28;20458;-64
2023/09/22 03:46:10;;;;;;;9.57;5.47;;;19.00;99.90;;;19.32;73.19;94999.66;5079484;28;20451;-65
2023/09/22 03:48:37;;;;;;;11.60;5.40;;;19.00;99.90;;;19.30;73.61;95007.03;5082453;28;20561;-58
2023/09/22 03:51:05;;;;;;;7.53;5.63;;;18.90;99.90;;;19.30;73.87;95003.53;5076227;28;20458;-66
2023/09/22 03:53:32;;;;;;;13.70;5.07;;;18.90;99.90;;;19.29;73.82;95002.72;5079197;28;20529;-59
2023/09/22 03:56:02;;;;;;;13.73;4.83;;;18.90;99.90;;;19.29;73.74;95000.03;5075153;28;20447;-59
2023/09/22 03:58:29;;;;;;;7.87;4.63;;;18.90;99.90;;;19.30;73.89;94996.38;5075516;28;20451;-67
2023/09/22 04:01:08;;;;;;;11.83;6.30;;;18.90;99.90;;;19.32;74.00;94999.66;5074902;28;20508;-66
2023/09/22 04:03:36;;;;;;;11.60;5.70;;;18.90;99.90;;;19.32;73.85;94994.31;5077223;28;20515;-66
2023/09/22 04:06:05;;;;;;;8.70;5.60;;;18.90;99.90;;;19.33;74.21;94997.81;5080868;28;20575;-66
2023/09/22 04:08:32;;;;;;;8.03;5.00;;;18.90;99.90;;;19.33;74.36;95000.47;5072744;28;20455;-66
2023/09/22 04:11:02;;;;;;;11.43;5.67;;;19.00;99.90;;;19.35;74.43;95003.81;5080853;28;20507;-58
2023/09/22 04:13:30;;;;;;;14.53;5.33;;;18.90;99.90;;;19.36;74.10;95005.44;5079614;28;20540;-59
2023/09/22 04:16:00;;;;;;;19.53;5.73;;;18.90;99.90;;;19.37;74.32;95006.28;5080493;28;20461;-59
2023/09/22 04:18:29;;;;;;;22.90;5.27;;;18.90;99.90;;;19.37;74.15;95007.09;5079231;28;20447;-58
2023/09/22 04:20:57;;;;;;;12.30;4.93;;;19.00;99.90;;;19.35;74.40;95007.28;5079358;28;20583;-59
2023/09/22 04:23:25;;;;;;;11.37;5.90;;;18.90;99.90;;;19.35;74.20;95009.94;5074753;28;20456;-58
2023/09/22 04:25:54;;;;;;;10.77;5.73;;;18.90;99.90;;;19.34;73.78;95008.28;5080112;28;20873;-58
2023/09/22 04:28:24;;;;;;;12.93;5.87;;;18.90;99.90;;;19.34;73.86;95010.13;5079514;28;20941;-64
2023/09/22 04:30:53;;;;;;;12.60;5.63;;;19.00;99.90;;;19.36;74.83;95005.44;5079840;28;20449;-60
2023/09/22 04:33:21;;;;;;;10.53;5.87;;;18.90;99.90;;;19.35;74.63;95012.63;5071325;28;20495;-65
2023/09/22 04:35:50;;;;;;;11.40;6.80;;;19.00;99.90;;;19.32;74.33;95022.84;5079634;28;20553;-60
2023/09/22 04:38:19;;;;;;;9.63;5.67;;;18.90;99.90;;;19.27;74.75;95012.75;5076569;28;20545;-65
2023/09/22 04:40:47;;;;;;;12.13;6.57;;;18.90;99.90;;;19.26;74.48;95024.44;5068184;28;20485;-61
2023/09/22 04:43:14;;;;;;;9.53;5.20;;;18.90;99.90;;;19.28;74.34;95025.06;5065526;28;20801;-65
2023/09/22 04:45:45;;;;;;;10.93;5.80;;;18.90;99.90;;;19.33;74.51;95016.47;5068303;28;20904;-63
2023/09/22 04:48:13;;;;;;;12.20;6.60;;;18.90;99.90;;;19.37;74.47;95017.75;5068665;28;20478;-65
2023/09/22 04:50:41;;;;;;;16.97;5.47;;;18.90;99.90;;;19.42;74.08;95022.53;5067321;28;20467;-62
2023/09/22 04:53:08;;;;;;;11.10;6.23;;;19.00;99.90;;;19.46;74.06;95024.63;5064838;28;20486;-60
2023/09/22 04:55:36;;;;;;;12.53;6.47;;;19.00;99.90;;;19.50;74.31;95025.91;5073018;28;20467;-60
2023/09/22 04:58:04;;;;;;;9.27;5.70;;;19.10;99.90;;;19.56;73.87;95021.63;5065459;28;20754;-62
2023/09/22 05:00:33;;;;;;;12.50;5.93;;;19.10;99.90;;;19.65;73.89;95020.47;5066682;28;20466;-62
2023/09/22 05:03:04;;;;;;;8.30;5.00;;;19.20;99.90;;;19.79;73.19;95016.09;5068077;28;20447;-60
2023/09/22 05:05:32;;;;;;;8.00;5.10;;;19.30;99.90;;;19.87;72.63;95023.13;5072833;28;20469;-58
2023/09/22 05:07:59;;;;;;;15.80;4.60;;;19.40;99.90;;;19.92;72.05;95036.72;5069549;28;20482;-59
2023/09/22 05:10:27;;;;;;;11.13;4.80;;;19.50;99.90;;;19.92;71.93;95023.38;5079089;28;20468;-59
2023/09/22 05:12:55;;;;;;;10.73;5.43;;;19.50;99.90;;;19.97;71.73;95028.97;5079725;28;20485;-59
2023/09/22 05:15:22;;;;;;;17.83;5.23;;;19.60;99.90;;;20.02;71.73;95028.38;5078781;28;20471;-64
2023/09/22 05:17:49;;;;;;;20.37;5.43;;;19.60;99.90;;;20.10;71.69;95025.56;5079678;28;20449;-60
2023/09/22 05:20:20;;;;;;;22.67;5.20;;;19.70;99.90;;;20.24;71.18;95037.97;5078728;28;20471;-57
2023/09/22 05:22:47;;;;;;;9.90;4.30;;;19.80;99.90;;;20.41;70.52;95035.81;5079489;28;20865;-58
2023/09/22 05:25:15;;;;;;;18.47;4.43;;;20.00;99.90;;;20.54;70.03;95050.28;5081857;28;20528;-58
2023/09/22 05:27:44;;;;;;;12.83;4.60;;;20.10;99.90;;;20.61;69.82;95053.81;5077151;28;21014;-58
2023/09/22 05:30:13;;;;;;;15.70;5.60;;;20.20;99.90;;;20.66;69.55;95053.25;5078270;28;20546;-59
2023/09/22 05:32:41;;;;;;;12.20;5.87;;;20.20;99.90;;;20.72;69.32;95058.63;5079811;28;20668;-69
2023/09/22 05:35:08;;;;;;;8.07;5.40;;;20.30;99.90;;;20.76;69.30;95056.41;5078612;28;20462;-59
2023/09/22 05:37:37;;;;;;;7.03;4.90;;;20.30;99.90;;;20.78;68.90;95060.50;5075041;28;20458;-57
2023/09/22 05:40:12;;;;;;;12.63;4.47;;;20.40;99.90;;;20.81;68.86;95055.81;5078641;28;20474;-64
2023/09/22 05:42:39;;;;;;;15.20;5.03;;;20.40;99.90;;;20.86;68.58;95062.19;5078623;28;20442;-64
2023/09/22 05:45:08;;;;;;;10.47;5.53;;;20.40;99.90;;;20.93;68.28;95059.56;5079133;28;20929;-64
2023/09/22 05:47:35;;;;;;;22.10;7.00;;;20.50;99.90;;;20.95;68.46;95062.84;5076382;28;20451;-59
2023/09/22 05:50:03;;;;;;;16.03;5.30;;;20.50;99.90;;;21.03;68.37;95056.50;5076871;28;20511;-66
2023/09/22 05:52:30;;;;;;;14.47;4.90;;;20.60;99.90;;;21.11;67.88;95062.47;5075333;28;20478;-57
2023/09/22 05:54:59;;;;;;;10.27;4.90;;;20.60;99.90;;;21.23;68.04;95059.25;5078402;28;20913;-58
2023/09/22 05:57:26;;;;;;;11.17;5.50;;;20.70;99.90;;;21.41;67.58;95061.31;5079318;28;20946;-57
2023/09/22 05:59:54;;;;;;;10.53;5.40;;;20.90;99.90;;;21.61;67.11;95066.75;5081995;28;20467;-58
2023/09/22 06:02:22;;;;;;;13.60;5.17;;;21.00;99.90;;;21.76;66.66;95058.53;5083442;28;20481;-58
2023/09/22 06:04:50;;;;;;;13.73;6.27;;;21.20;99.90;;;21.97;66.34;95066.38;5082287;28;20471;-65
2023/09/22 06:07:17;;;;;;;16.80;6.90;;;21.40;99.90;;;22.13;65.89;95065.13;5077024;28;20458;-59
2023/09/22 06:09:45;;;;;;;14.33;7.73;;;21.60;99.90;;;22.38;65.52;95069.88;5083970;28;20527;-58
2023/09/22 06:12:14;;;;;;;15.83;7.00;;;21.80;99.90;;;22.67;65.03;95062.41;5080247;28;20504;-57
2023/09/22 06:14:41;;;;;;;11.67;7.13;;;22.10;99.90;;;22.95;64.25;95066.66;5081230;28;20907;-64
2023/09/22 06:17:09;;;;;;;12.30;6.70;;;22.30;99.90;;;23.11;63.90;95066.19;5083578;28;20499;-58
2023/09/22 06:19:36;;;;;;;20.37;6.17;;;22.50;99.90;;;23.30;63.07;95069.84;5082135;28;20466;-65
2023/09/22 06:22:04;;;;;;;12.30;6.83;;;22.70;99.90;;;23.50;63.19;95074.25;5084021;28;20870;-65
2023/09/22 06:24:31;;;;;;;11.07;6.50;;;22.90;99.90;;;23.79;62.60;95078.19;5080866;28;20815;-64
2023/09/22 06:26:59;;;;;;;13.77;7.03;;;23.20;99.90;;;24.10;61.79;95076.56;5079369;28;20458;-57
2023/09/22 06:29:28;;;;;;;11.80;6.17;;;23.50;99.90;;;24.42;61.45;95076.50;5080880;28;20466;-59
2023/09/22 06:31:55;;;;;;;8.20;5.73;;;23.80;99.90;;;24.74;60.36;95071.03;5083929;28;20528;-64
2023/09/22 06:34:22;;;;;;;10.37;6.07;;;24.10;99.90;;;25.04;59.89;95082.69;5077116;28;20542;-64
2023/09/22 06:36:50;;;;;;;13.30;6.80;;;24.40;99.90;;;25.32;58.84;95081.34;5075616;28;20457;-65
2023/09/22 06:39:18;;;;;;;11.97;5.80;;;24.70;99.90;;;25.64;58.46;95088.38;5073311;28;20469;-57
2023/09/22 06:41:45;;;;;;;9.00;5.53;;;25.00;99.90;;;25.94;58.06;95091.06;5075958;28;21005;-65
2023/09/22 06:44:12;;;;;;;12.07;5.17;;;25.30;99.70;;;26.23;57.09;95091.28;5083641;28;20473;-58
2023/09/22 06:46:41;;;;;;;13.63;5.70;;;25.60;99.10;;;26.47;56.44;95090.22;5079153;28;20560;-57
2023/09/22 06:49:08;;;;;;;10.33;5.30;;;25.80;98.40;;;26.72;55.74;95099.97;5080261;28;20470;-59
2023/09/22 06:51:37;;;;;;;10.20;6.10;;;26.00;97.70;;;27.00;55.01;95103.81;5083314;28;20481;-65
2023/09/22 06:54:05;;;;;;;22.03;6.70;;;26.30;97.00;;;27.31;54.60;95101.75;5080598;28;20518;-57
2023/09/22 06:56:33;;;;;;;10.67;6.43;;;26.60;96.80;;;27.63;53.65;95095.94;5080724;28;20454;-58
2023/09/22 06:59:02;;;;;;;12.03;6.80;;;26.90;95.90;;;27.87;53.35;95093.94;5083131;28;20801;-64
2023/09/22 07:01:29;;;;;;;14.13;6.43;;;27.20;95.40;;;28.07;52.55;95105.16;5080293;28;20501;-58
2023/09/22 07:03:58;;;;;;;8.40;6.50;;;27.40;94.60;;;28.26;52.02;95108.44;5082660;28;20465;-65
2023/09/22 07:06:26;;;;;;;29.63;7.00;;;27.60;94.10;;;28.56;51.60;95106.47;5066751;28;20458;-64
2023/09/22 07:08:54;;;;;;;18.27;7.20;;;27.90;93.60;;;28.86;51.19;95100.75;5069863;28;20483;-64
2023/09/22 07:11:22;;;;;;;10.90;5.83;;;28.20;93.10;;;29.20;51.28;95099.84;5082867;28;20465;-64
2023/09/22 07:13:49;;;;;;;13.77;7.43;;;28.40;92.40;;;29.38;49.92;95106.84;5069514;28;20503;-58
2023/09/22 07:16:16;;;;;;;20.50;7.80;;;28.70;91.70;;;29.59;49.90;95106.00;5078683;28;21439;-59
2023/09/22 07:18:44;;;;;;;10.20;6.00;;;28.90;91.30;;;29.94;50.04;95112.91;5079807;28;20450;-58
2023/09/22 07:21:12;;;;;;;13.90;8.20;;;29.20;90.70;;;30.35;49.41;95112.44;5080428;28;20623;-58
2023/09/22 07:23:40;;;;;;;12.90;6.50;;;29.60;90.30;;;30.63;47.68;95108.66;5082994;28;20206;-63
2023/09/22 07:26:09;;;;;;;24.93;7.00;;;29.90;87.30;;;30.81;47.07;95114.75;5073971;28;20201;-58
2023/09/22 07:28:37;;;;;;;11.93;7.10;;;30.10;85.20;;;30.97;47.47;95108.38;5080238;28;20682;-59
2023/09/22 07:31:12;;;;;;;11.90;5.43;;;30.30;85.70;;;31.25;46.79;95109.84;5067550;28;20208;-58
2023/09/22 07:33:39;;;;;;;15.65;5.43;;;30.50;84.00;;;31.49;46.09;95105.88;5073222;28;20724;-65
2023/09/22 07:36:08;;;;;;;18.42;6.40;;;30.80;82.70;;;31.66;45.84;95111.94;5077414;28;20203;-60
2023/09/22 07:38:37;;;;;;;17.08;5.88;;;31.10;81.30;;;31.99;45.18;95118.00;5073745;28;20189;-64
2023/09/22 07:41:04;;;;;;;14.38;6.45;;;31.40;79.40;;;32.31;44.60;95111.56;5081844;28;20199;-59
2023/09/22 07:43:32;;;;;;;13.65;6.03;;;31.80;77.40;;;32.59;43.69;95109.38;5072535;28;20246;-67
2023/09/22 07:45:59;;;;;;;15.70;7.45;;;32.20;76.50;;;32.93;43.25;95106.09;5076262;28;20572;-65
2023/09/22 07:48:27;;;;;;;12.80;4.88;;;32.50;74.80;;;33.23;42.88;95107.94;5073350;28;20328;-59
2023/09/22 07:50:54;;;;;;;9.52;5.20;;;32.80;72.50;;;33.51;42.35;95111.94;5073562;28;20241;-59
2023/09/22 07:53:22;;;;;;;9.30;4.78;;;33.10;71.70;;;33.84;41.62;95096.00;5070462;28;20224;-59
2023/09/22 07:55:52;;;;;;;11.13;4.95;;;33.40;70.00;;;34.23;41.50;95100.63;5074772;28;20220;-58
2023/09/22 07:58:20;;;;;;;10.18;4.95;;;33.70;68.70;;;34.57;40.43;95102.59;5075343;28;20196;-65
2023/09/22 08:00:47;;;;;;;7.72;4.10;;;34.10;67.60;;;34.88;39.69;95105.06;5069599;28;20220;-58
2023/09/22 08:03:16;;;;;;;9.18;4.72;;;34.40;65.80;;;35.17;39.19;95101.50;5070567;28;20579;-65
2023/09/22 08:05:44;;;;;;;15.07;5.10;;;34.70;64.50;;;35.45;38.56;95101.75;5072202;28;20529;-59
2023/09/22 08:08:11;;;;;;;9.27;4.53;;;34.90;62.10;;;35.70;37.24;95101.41;5065992;28;20204;-59
2023/09/22 08:10:39;;;;;;;15.45;5.47;;;35.20;60.20;;;35.79;37.16;95089.84;5071799;28;20308;-65
2023/09/22 08:13:08;;;;;;;20.73;5.90;;;35.40;59.20;;;35.71;36.46;95096.75;5075744;28;20280;-64
2023/09/22 08:15:37;;;;;;;7.97;4.63;;;35.40;58.10;;;35.55;37.29;95101.63;5071258;28;20668;-64
2023/09/22 08:18:05;;;;;;;17.23;5.38;;;35.30;58.50;;;35.64;37.43;95090.84;5079003;28;20204;-58
2023/09/22 08:20:33;;;;;;;10.25;4.80;;;35.30;58.50;;;35.81;36.19;95095.84;5078721;28;20228;-59
2023/09/22 08:23:00;;;;;;;13.00;4.63;;;35.50;56.90;;;35.81;36.00;95085.69;5075253;28;20571;-59
2023/09/22 08:25:28;;;;;;;18.98;5.85;;;35.50;57.00;;;35.87;36.21;95091.94;5071371;28;20703;-60
2023/09/22 08:27:56;;;;;;;7.30;4.32;;;35.50;57.50;;;36.04;35.86;95086.75;5073956;28;20657;-66
2023/09/22 08:30:25;;;;;;;12.43;5.22;;;35.60;56.30;;;36.24;35.18;95090.28;5079406;28;20220;-60
2023/09/22 08:32:53;;;;;;;15.30;5.20;;;35.70;55.90;;;36.38;35.14;95091.19;5073623;28;20279;-59
2023/09/22 08:35:20;;;;;;;9.82;5.07;;;35.80;54.80;;;36.28;34.63;95088.59;5079047;28;20228;-60
2023/09/22 08:37:49;;;;;;;7.70;4.93;;;35.80;54.40;;;36.05;34.59;95077.44;5079576;28;20203;-58
2023/09/22 08:40:17;;;;;;;11.73;5.05;;;35.60;54.30;;;35.82;34.36;95073.66;5078776;28;20765;-66
2023/09/22 08:42:47;;;;;;;14.35;5.07;;;35.40;53.60;;;35.63;35.13;95079.06;5064170;28;20196;-64
2023/09/22 08:45:14;;;;;;;20.02;5.72;;;35.20;54.00;;;35.48;35.06;95065.59;5079247;28;20234;-58
2023/09/22 08:47:45;;;;;;;12.88;5.28;;;34.90;54.20;;;35.51;35.53;95060.34;5077028;28;20245;-65
2023/09/22 08:50:13;;;;;;;18.75;5.45;;;34.90;54.80;;;35.69;34.94;95061.47;5073130;28;20215;-59
2023/09/22 08:52:40;;;;;;;13.23;5.65;;;34.90;54.80;;;35.88;34.56;95060.69;5069367;28;20189;-63
2023/09/22 08:55:13;;;;;;;11.65;4.68;;;35.10;54.00;;;36.00;34.65;95052.03;5064686;28;20290;-59
2023/09/22 08:57:44;;;;;;;13.07;5.32;;;35.20;54.10;;;36.19;34.82;95050.09;5069197;28;20212;-58
2023/09/22 09:00:18;;;;;;;13.27;4.40;;;35.40;54.10;;;36.29;34.43;95051.88;5066418;28;20262;-59
2023/09/22 09:02:47;;;;;;;17.85;6.85;;;35.50;54.00;;;36.41;34.46;95045.94;5068195;28;20672;-58
2023/09/22 09:05:22;;;;;;;18.77;5.65;;;35.70;54.00;;;36.58;34.38;95040.69;5074109;28;20219;-58
2023/09/22 09:07:50;;;;;;;22.33;5.82;;;35.80;53.80;;;36.60;34.12;95040.41;5073915;28;20198;-57
2023/09/22 09:10:28;;;;;;;24.48;5.95;;;35.80;52.90;;;36.30;33.50;95033.50;5073993;28;20220;-58
2023/09/22 09:12:55;;;;;;;13.10;5.22;;;35.70;52.70;;;36.20;34.15;95032.53;5079505;28;20272;-58
2023/09/22 09:15:26;;;;;;;22.70;6.20;;;35.50;53.20;;;36.22;34.30;95029.50;5074419;28;20243;-65
2023/09/22 09:18:15;;;;;;;22.02;6.05;;;35.50;53.30;;;36.34;33.21;95029.06;5073494;28;20225;-64
2023/09/22 09:20:43;;;;;;;12.90;4.63;;;35.50;52.90;;;36.42;33.89;95020.97;5069354;28;20250;-59
2023/09/22 09:23:15;;;;;;;14.95;5.20;;;35.60;52.70;;;36.30;33.79;95019.81;5068729;28;20680;-60
2023/09/22 09:25:43;;;;;;;12.30;5.43;;;35.60;52.40;;;36.14;33.54;95017.28;5076712;28;20653;-59
2023/09/22 09:28:12;;;;;;;13.05;5.32;;;35.50;52.40;;;35.96;33.48;95015.41;5074546;28;20200;-57
2023/09/22 09:30:40;;;;;;;16.33;5.50;;;35.30;52.30;;;35.76;33.91;95016.50;5079295;28;20223;-63
2023/09/22 09:33:12;;;;;;;11.52;4.78;;;35.10;52.10;;;35.56;33.79;95003.94;5075340;28;20810;-64
2023/09/22 09:35:41;;;;;;;21.98;6.13;;;34.90;52.50;;;35.57;34.40;95002.81;5076784;28;20238;-64
2023/09/22 09:38:09;;;;;;;16.25;4.80;;;34.90;53.00;;;35.65;33.84;94996.66;5074056;28;20193;-63
2023/09/22 09:40:38;;;;;;;9.98;4.40;;;34.90;52.40;;;35.58;33.54;94990.78;5082082;28;20707;-64
2023/09/22 09:43:11;;;;;;;8.27;5.05;;;34.90;52.20;;;35.48;34.33;94991.75;5076164;28;20268;-64
2023/09/22 09:45:46;;;;;;;10.27;5.13;;;34.80;52.50;;;35.52;34.80;94984.56;5077680;28;20245;-64
2023/09/22 09:48:16;;;;;;;7.28;4.78;;;34.80;53.00;;;35.78;34.26;94995.16;5066818;28;20192;-64
2023/09/22 09:50:51;;;;;;;7.05;5.00;;;34.90;53.20;;;36.11;34.11;94986.97;5078461;28;20258;-64
2023/09/22 09:53:32;;;;;;;18.35;6.22;;;35.20;52.80;;;36.40;33.76;94981.28;5063394;28;20214;-64
2023/09/22 09:56:02;;;;;;;7.90;4.85;;;35.50;52.60;;;36.65;33.45;94974.53;5076169;28;20238;-60
2023/09/22 09:58:32;;;;;;;12.25;4.97;;;35.70;52.30;;;36.86;33.17;94980.47;5079875;28;20200;-59
2023/09/22 10:01:00;;;;;;;14.23;5.65;;;36.00;51.90;;;37.07;33.34;94974.56;5070757;28;20196;-59
2023/09/22 10:03:28;;;;;;;15.63;5.70;;;36.20;52.50;;;37.27;33.05;94984.31;5076139;28;20200;-63
2023/09/22 10:05:57;;;;;;;11.90;4.78;;;36.40;51.60;;;37.45;32.39;94980.63;5071977;28;20715;-64
2023/09/22 10:08:28;;;;;;;13.60;6.22;;;36.60;50.80;;;37.63;32.21;94989.84;5082037;28;20200;-62
2023/09/22 10:10:58;;;;;;;24.52;6.18;;;36.80;50.70;;;37.73;31.65;94988.00;5075952;28;20218;-63
2023/09/22 10:13:26;;;;;;;21.63;5.25;;;36.90;50.00;;;37.62;31.62;94979.16;5078874;28;20239;-64
2023/09/22 10:15:59;;;;;;;22.67;6.03;;;36.80;49.40;;;37.44;31.58;94978.19;5077538;28;20235;-58
2023/09/22 10:18:47;;;;;;;25.10;6.30;;;36.70;49.30;;;37.43;31.89;94966.41;5080349;28;20610;-63
2023/09/22 10:21:43;;;;;;;25.70;6.90;;;36.60;49.30;;;37.58;31.90;94967.19;5082391;28;20257;-64